Blessing, Texas
Current Conditions -  °F | °C
As of 2:53 AM on Saturday 22 Nov 2014 (Local Time) from KPSX Reporting Station
Few Clouds Few Clouds  
Wind Chill: 68°   Ceiling: Unl
Heat Index: 68°   Visibility: 10mi
Dew Point: 64°   Wind: 13mph
Humidity: 87%   Direction: 110°ESE
Pressure: 30.05"   Gusts: NA
Location:  28.87°N, 96.22°W
Report Text: KPSX 220853Z AUTO 11011KT 10SM FEW095 20/18 A3005 RMK AO2 SLP175 T02000178 58013
Loading
Personal Weather Stations






























Interactive Weather Map New forecast layout! Learn more

10-Day Weather Forecast

Advertisements
Track Severe Weather on mobile